sensor_id;sensor_type;location;lat;lon;timestamp;temperature;humidity
7388;DHT22;3735;50.136;11.062;2023-07-13T00:02:23;21.20;99.90
7388;DHT22;3735;50.136;11.062;2023-07-13T00:04:50;21.10;99.90
7388;DHT22;3735;50.136;11.062;2023-07-13T00:07:16;21.10;99.90
7388;DHT22;3735;50.136;11.062;2023-07-13T00:09:46;21.00;99.90
7388;DHT22;3735;50.136;11.062;2023-07-13T00:12:28;21.00;99.90
7388;DHT22;3735;50.136;11.062;2023-07-13T00:15:03;21.00;99.90
7388;DHT22;3735;50.136;11.062;2023-07-13T00:17:31;20.90;99.90
7388;DHT22;3735;50.136;11.062;2023-07-13T00:19:57;20.90;99.90
7388;DHT22;3735;50.136;11.062;2023-07-13T00:22:24;20.90;99.90
7388;DHT22;3735;50.136;11.062;2023-07-13T00:24:52;20.80;99.90
7388;DHT22;3735;50.136;11.062;2023-07-13T00:27:21;20.80;99.90
7388;DHT22;3735;50.136;11.062;2023-07-13T00:29:47;20.70;99.90
7388;DHT22;3735;50.136;11.062;2023-07-13T00:32:12;20.60;99.90
7388;DHT22;3735;50.136;11.062;2023-07-13T00:34:38;20.50;99.90
7388;DHT22;3735;50.136;11.062;2023-07-13T00:37:06;20.30;99.90
7388;DHT22;3735;50.136;11.062;2023-07-13T00:39:33;20.20;99.90
7388;DHT22;3735;50.136;11.062;2023-07-13T00:42:02;20.00;99.90
7388;DHT22;3735;50.136;11.062;2023-07-13T00:44:28;19.80;99.90
7388;DHT22;3735;50.136;11.062;2023-07-13T00:46:54;19.60;99.90
7388;DHT22;3735;50.136;11.062;2023-07-13T00:49:23;19.50;99.90
7388;DHT22;3735;50.136;11.062;2023-07-13T00:51:55;19.40;99.90
7388;DHT22;3735;50.136;11.062;2023-07-13T00:54:28;19.20;99.90
7388;DHT22;3735;50.136;11.062;2023-07-13T00:57:17;19.10;99.90
7388;DHT22;3735;50.136;11.062;2023-07-13T00:59:49;19.00;99.90
7388;DHT22;3735;50.136;11.062;2023-07-13T01:02:19;19.10;99.90
7388;DHT22;3735;50.136;11.062;2023-07-13T01:04:47;19.00;99.90
7388;DHT22;3735;50.136;11.062;2023-07-13T01:07:13;19.10;99.90
7388;DHT22;3735;50.136;11.062;2023-07-13T01:09:39;19.00;99.90
7388;DHT22;3735;50.136;11.062;2023-07-13T01:12:06;19.00;99.90
7388;DHT22;3735;50.136;11.062;2023-07-13T01:14:32;19.00;99.90
7388;DHT22;3735;50.136;11.062;2023-07-13T01:16:58;19.00;99.90
7388;DHT22;3735;50.136;11.062;2023-07-13T01:19:38;19.00;99.90
7388;DHT22;3735;50.136;11.062;2023-07-13T01:22:16;18.90;99.90
7388;DHT22;3735;50.136;11.062;2023-07-13T01:24:46;18.70;99.90
7388;DHT22;3735;50.136;11.062;2023-07-13T01:27:15;18.60;99.90
7388;DHT22;3735;50.136;11.062;2023-07-13T01:29:44;18.40;99.90
7388;DHT22;3735;50.136;11.062;2023-07-13T01:32:15;18.40;99.90
7388;DHT22;3735;50.136;11.062;2023-07-13T01:34:52;18.30;99.90
7388;DHT22;3735;50.136;11.062;2023-07-13T01:37:20;18.20;99.90
7388;DHT22;3735;50.136;11.062;2023-07-13T01:39:46;18.20;99.90
7388;DHT22;3735;50.136;11.062;2023-07-13T01:42:13;18.20;99.90
7388;DHT22;3735;50.136;11.062;2023-07-13T01:44:39;18.20;99.90
7388;DHT22;3735;50.136;11.062;2023-07-13T01:47:05;18.20;99.90
7388;DHT22;3735;50.136;11.062;2023-07-13T01:49:31;18.20;99.90
7388;DHT22;3735;50.136;11.062;2023-07-13T01:51:57;18.20;99.90
7388;DHT22;3735;50.136;11.062;2023-07-13T01:54:23;18.20;99.90
7388;DHT22;3735;50.136;11.062;2023-07-13T01:56:48;18.20;99.90
7388;DHT22;3735;50.136;11.062;2023-07-13T01:59:14;18.20;99.90
7388;DHT22;3735;50.136;11.062;2023-07-13T02:01:40;18.10;99.90
7388;DHT22;3735;50.136;11.062;2023-07-13T02:04:06;18.00;99.90
7388;DHT22;3735;50.136;11.062;2023-07-13T02:06:32;17.90;99.90
7388;DHT22;3735;50.136;11.062;2023-07-13T02:08:58;17.90;99.90
7388;DHT22;3735;50.136;11.062;2023-07-13T02:11:24;17.90;99.90
7388;DHT22;3735;50.136;11.062;2023-07-13T02:13:51;17.90;99.90
7388;DHT22;3735;50.136;11.062;2023-07-13T02:16:17;17.80;99.90
7388;DHT22;3735;50.136;11.062;2023-07-13T02:18:43;17.80;99.90
7388;DHT22;3735;50.136;11.062;2023-07-13T02:21:08;17.80;99.90
7388;DHT22;3735;50.136;11.062;2023-07-13T02:23:34;17.80;99.90
7388;DHT22;3735;50.136;11.062;2023-07-13T02:26:03;17.80;99.90
7388;DHT22;3735;50.136;11.062;2023-07-13T02:28:29;17.80;99.90
7388;DHT22;3735;50.136;11.062;2023-07-13T02:30:54;17.80;99.90
7388;DHT22;3735;50.136;11.062;2023-07-13T02:33:20;17.70;99.90
7388;DHT22;3735;50.136;11.062;2023-07-13T02:35:46;17.60;99.90
7388;DHT22;3735;50.136;11.062;2023-07-13T02:38:12;17.50;99.90
7388;DHT22;3735;50.136;11.062;2023-07-13T02:40:37;17.30;99.90
7388;DHT22;3735;50.136;11.062;2023-07-13T02:43:04;17.30;99.90
7388;DHT22;3735;50.136;11.062;2023-07-13T02:45:29;17.30;99.90
7388;DHT22;3735;50.136;11.062;2023-07-13T02:47:55;17.20;99.90
7388;DHT22;3735;50.136;11.062;2023-07-13T02:50:21;17.20;99.90
7388;DHT22;3735;50.136;11.062;2023-07-13T02:52:47;17.10;99.90
7388;DHT22;3735;50.136;11.062;2023-07-13T02:55:13;17.00;99.90
7388;DHT22;3735;50.136;11.062;2023-07-13T02:57:38;17.00;99.90
7388;DHT22;3735;50.136;11.062;2023-07-13T03:00:05;17.00;99.90
7388;DHT22;3735;50.136;11.062;2023-07-13T03:02:32;17.10;99.90
7388;DHT22;3735;50.136;11.062;2023-07-13T03:04:59;17.20;99.90
7388;DHT22;3735;50.136;11.062;2023-07-13T03:07:25;17.40;99.90
7388;DHT22;3735;50.136;11.062;2023-07-13T03:09:58;17.40;99.90
7388;DHT22;3735;50.136;11.062;2023-07-13T03:12:24;17.40;99.90
7388;DHT22;3735;50.136;11.062;2023-07-13T03:14:51;17.30;99.90
7388;DHT22;3735;50.136;11.062;2023-07-13T03:17:16;17.20;99.90
7388;DHT22;3735;50.136;11.062;2023-07-13T03:19:42;17.00;99.90
7388;DHT22;3735;50.136;11.062;2023-07-13T03:22:09;16.90;99.90
7388;DHT22;3735;50.136;11.062;2023-07-13T03:24:35;16.90;99.90
7388;DHT22;3735;50.136;11.062;2023-07-13T03:27:04;16.90;99.90
7388;DHT22;3735;50.136;11.062;2023-07-13T03:29:31;16.90;99.90
7388;DHT22;3735;50.136;11.062;2023-07-13T03:31:56;16.90;99.90
7388;DHT22;3735;50.136;11.062;2023-07-13T03:34:22;16.90;99.90
7388;DHT22;3735;50.136;11.062;2023-07-13T03:36:48;17.00;99.90
7388;DHT22;3735;50.136;11.062;2023-07-13T03:39:14;17.10;99.90
7388;DHT22;3735;50.136;11.062;2023-07-13T03:41:40;17.30;99.90
7388;DHT22;3735;50.136;11.062;2023-07-13T03:44:06;17.40;99.90
7388;DHT22;3735;50.136;11.062;2023-07-13T03:46:32;17.50;99.90
7388;DHT22;3735;50.136;11.062;2023-07-13T03:48:59;17.60;99.90
7388;DHT22;3735;50.136;11.062;2023-07-13T03:51:25;17.70;99.90
7388;DHT22;3735;50.136;11.062;2023-07-13T03:53:51;17.70;99.90
7388;DHT22;3735;50.136;11.062;2023-07-13T03:56:18;17.80;99.90
7388;DHT22;3735;50.136;11.062;2023-07-13T03:58:47;17.90;99.90
7388;DHT22;3735;50.136;11.062;2023-07-13T04:01:16;17.90;99.90
7388;DHT22;3735;50.136;11.062;2023-07-13T04:03:44;18.00;99.90
7388;DHT22;3735;50.136;11.062;2023-07-13T04:06:18;18.10;99.90
7388;DHT22;3735;50.136;11.062;2023-07-13T04:08:52;18.20;99.90
7388;DHT22;3735;50.136;11.062;2023-07-13T04:11:22;18.30;99.90
7388;DHT22;3735;50.136;11.062;2023-07-13T04:13:50;18.40;99.90
7388;DHT22;3735;50.136;11.062;2023-07-13T04:16:17;18.50;99.90
7388;DHT22;3735;50.136;11.062;2023-07-13T04:18:45;18.70;99.90
7388;DHT22;3735;50.136;11.062;2023-07-13T04:21:12;18.80;99.90
7388;DHT22;3735;50.136;11.062;2023-07-13T04:23:39;19.00;99.90
7388;DHT22;3735;50.136;11.062;2023-07-13T04:26:06;19.20;99.90
7388;DHT22;3735;50.136;11.062;2023-07-13T04:28:32;19.20;99.90
7388;DHT22;3735;50.136;11.062;2023-07-13T04:30:58;19.30;99.90
7388;DHT22;3735;50.136;11.062;2023-07-13T04:33:25;19.30;99.90
7388;DHT22;3735;50.136;11.062;2023-07-13T04:35:53;19.40;99.90
7388;DHT22;3735;50.136;11.062;2023-07-13T04:38:27;19.50;99.90
7388;DHT22;3735;50.136;11.062;2023-07-13T04:41:00;19.60;99.90
7388;DHT22;3735;50.136;11.062;2023-07-13T04:43:27;19.80;99.90
7388;DHT22;3735;50.136;11.062;2023-07-13T04:45:55;20.10;99.90
7388;DHT22;3735;50.136;11.062;2023-07-13T04:48:22;20.10;99.90
7388;DHT22;3735;50.136;11.062;2023-07-13T04:50:55;20.10;99.90
7388;DHT22;3735;50.136;11.062;2023-07-13T04:53:22;20.10;99.90
7388;DHT22;3735;50.136;11.062;2023-07-13T04:55:48;20.00;99.90
7388;DHT22;3735;50.136;11.062;2023-07-13T04:58:14;20.00;99.90
7388;DHT22;3735;50.136;11.062;2023-07-13T05:00:40;20.10;99.90
7388;DHT22;3735;50.136;11.062;2023-07-13T05:03:06;20.40;99.90
7388;DHT22;3735;50.136;11.062;2023-07-13T05:05:31;21.40;99.90
7388;DHT22;3735;50.136;11.062;2023-07-13T05:07:57;22.50;99.90
7388;DHT22;3735;50.136;11.062;2023-07-13T05:10:23;23.50;99.90
7388;DHT22;3735;50.136;11.062;2023-07-13T05:12:49;24.00;99.90
7388;DHT22;3735;50.136;11.062;2023-07-13T05:15:15;23.80;99.90
7388;DHT22;3735;50.136;11.062;2023-07-13T05:17:46;23.40;99.90
7388;DHT22;3735;50.136;11.062;2023-07-13T05:20:13;23.60;99.90
7388;DHT22;3735;50.136;11.062;2023-07-13T05:22:39;24.20;99.90
7388;DHT22;3735;50.136;11.062;2023-07-13T05:25:06;25.10;99.90
7388;DHT22;3735;50.136;11.062;2023-07-13T05:27:34;25.80;99.90
7388;DHT22;3735;50.136;11.062;2023-07-13T05:30:00;26.40;99.90
7388;DHT22;3735;50.136;11.062;2023-07-13T05:32:27;26.60;99.90
7388;DHT22;3735;50.136;11.062;2023-07-13T05:34:52;26.10;99.90
7388;DHT22;3735;50.136;11.062;2023-07-13T05:37:18;25.90;99.90
7388;DHT22;3735;50.136;11.062;2023-07-13T05:39:44;25.90;99.90
7388;DHT22;3735;50.136;11.062;2023-07-13T05:42:10;25.80;99.90
7388;DHT22;3735;50.136;11.062;2023-07-13T05:44:36;25.90;99.90
7388;DHT22;3735;50.136;11.062;2023-07-13T05:47:01;25.60;99.90
7388;DHT22;3735;50.136;11.062;2023-07-13T05:49:28;25.20;99.90
7388;DHT22;3735;50.136;11.062;2023-07-13T05:51:56;25.00;99.90
7388;DHT22;3735;50.136;11.062;2023-07-13T05:54:22;25.00;99.90
7388;DHT22;3735;50.136;11.062;2023-07-13T05:56:48;24.70;99.90
7388;DHT22;3735;50.136;11.062;2023-07-13T05:59:13;24.30;99.90
7388;DHT22;3735;50.136;11.062;2023-07-13T06:01:39;23.80;99.90
7388;DHT22;3735;50.136;11.062;2023-07-13T06:04:06;23.50;99.90
7388;DHT22;3735;50.136;11.062;2023-07-13T06:06:32;23.40;99.90
7388;DHT22;3735;50.136;11.062;2023-07-13T06:08:58;23.30;99.90
7388;DHT22;3735;50.136;11.062;2023-07-13T06:11:25;23.60;99.90
7388;DHT22;3735;50.136;11.062;2023-07-13T06:13:53;24.20;99.90
7388;DHT22;3735;50.136;11.062;2023-07-13T06:16:19;24.10;99.90
7388;DHT22;3735;50.136;11.062;2023-07-13T06:18:46;23.60;99.90
7388;DHT22;3735;50.136;11.062;2023-07-13T06:21:15;23.00;99.90
7388;DHT22;3735;50.136;11.062;2023-07-13T06:23:43;22.70;99.90
7388;DHT22;3735;50.136;11.062;2023-07-13T06:26:13;22.80;99.90
7388;DHT22;3735;50.136;11.062;2023-07-13T06:28:39;23.30;99.90
7388;DHT22;3735;50.136;11.062;2023-07-13T06:31:09;23.70;99.90
7388;DHT22;3735;50.136;11.062;2023-07-13T06:33:37;23.90;99.90
7388;DHT22;3735;50.136;11.062;2023-07-13T06:36:04;24.90;99.90
7388;DHT22;3735;50.136;11.062;2023-07-13T06:38:32;26.30;99.90
7388;DHT22;3735;50.136;11.062;2023-07-13T06:40:57;27.40;99.90
7388;DHT22;3735;50.136;11.062;2023-07-13T06:43:23;28.40;99.90
7388;DHT22;3735;50.136;11.062;2023-07-13T06:45:50;29.70;99.90
7388;DHT22;3735;50.136;11.062;2023-07-13T06:48:19;30.70;99.90
7388;DHT22;3735;50.136;11.062;2023-07-13T06:50:47;30.40;99.90
7388;DHT22;3735;50.136;11.062;2023-07-13T06:53:14;30.10;99.90
7388;DHT22;3735;50.136;11.062;2023-07-13T06:55:40;29.30;99.90
7388;DHT22;3735;50.136;11.062;2023-07-13T06:58:06;29.30;99.90
7388;DHT22;3735;50.136;11.062;2023-07-13T07:00:32;30.40;99.90
7388;DHT22;3735;50.136;11.062;2023-07-13T07:02:58;31.50;99.90
7388;DHT22;3735;50.136;11.062;2023-07-13T07:05:24;31.10;99.90
7388;DHT22;3735;50.136;11.062;2023-07-13T07:07:51;30.10;99.90
7388;DHT22;3735;50.136;11.062;2023-07-13T07:10:18;30.00;99.90
7388;DHT22;3735;50.136;11.062;2023-07-13T07:12:44;30.40;99.90
7388;DHT22;3735;50.136;11.062;2023-07-13T07:15:11;31.30;99.90
7388;DHT22;3735;50.136;11.062;2023-07-13T07:17:36;32.00;99.90
7388;DHT22;3735;50.136;11.062;2023-07-13T07:20:02;31.70;99.90
7388;DHT22;3735;50.136;11.062;2023-07-13T07:22:30;31.50;99.90
7388;DHT22;3735;50.136;11.062;2023-07-13T07:24:57;31.40;99.90
7388;DHT22;3735;50.136;11.062;2023-07-13T07:27:24;31.40;99.90
7388;DHT22;3735;50.136;11.062;2023-07-13T07:29:50;32.20;99.90
7388;DHT22;3735;50.136;11.062;2023-07-13T07:32:15;31.90;99.90
7388;DHT22;3735;50.136;11.062;2023-07-13T07:34:42;30.90;99.90
7388;DHT22;3735;50.136;11.062;2023-07-13T07:37:11;29.90;99.90
7388;DHT22;3735;50.136;11.062;2023-07-13T07:39:39;29.20;99.90
7388;DHT22;3735;50.136;11.062;2023-07-13T07:42:05;28.70;99.90
7388;DHT22;3735;50.136;11.062;2023-07-13T07:44:32;28.60;99.90
7388;DHT22;3735;50.136;11.062;2023-07-13T07:46:59;29.80;99.90
7388;DHT22;3735;50.136;11.062;2023-07-13T07:49:25;31.50;99.90
7388;DHT22;3735;50.136;11.062;2023-07-13T07:51:51;32.90;99.90
7388;DHT22;3735;50.136;11.062;2023-07-13T07:54:17;34.10;99.90
7388;DHT22;3735;50.136;11.062;2023-07-13T07:56:43;34.20;99.60
7388;DHT22;3735;50.136;11.062;2023-07-13T07:59:09;33.60;98.40
7388;DHT22;3735;50.136;11.062;2023-07-13T08:01:35;32.30;99.70
7388;DHT22;3735;50.136;11.062;2023-07-13T08:04:01;32.30;99.60
7388;DHT22;3735;50.136;11.062;2023-07-13T08:06:27;32.60;97.50
7388;DHT22;3735;50.136;11.062;2023-07-13T08:08:54;33.30;97.40
7388;DHT22;3735;50.136;11.062;2023-07-13T08:11:21;33.60;96.60
7388;DHT22;3735;50.136;11.062;2023-07-13T08:13:47;33.20;95.70
7388;DHT22;3735;50.136;11.062;2023-07-13T08:16:13;32.80;95.40
7388;DHT22;3735;50.136;11.062;2023-07-13T08:18:39;32.30;96.60
7388;DHT22;3735;50.136;11.062;2023-07-13T08:21:06;32.30;96.60
7388;DHT22;3735;50.136;11.062;2023-07-13T08:23:33;32.60;95.60
7388;DHT22;3735;50.136;11.062;2023-07-13T08:25:59;32.90;96.90
7388;DHT22;3735;50.136;11.062;2023-07-13T08:28:27;32.90;93.40
7388;DHT22;3735;50.136;11.062;2023-07-13T08:30:53;32.60;93.10
7388;DHT22;3735;50.136;11.062;2023-07-13T08:33:20;32.90;93.40
7388;DHT22;3735;50.136;11.062;2023-07-13T08:35:49;32.50;92.30
7388;DHT22;3735;50.136;11.062;2023-07-13T08:38:17;32.50;91.20
7388;DHT22;3735;50.136;11.062;2023-07-13T08:40:43;32.90;90.50
7388;DHT22;3735;50.136;11.062;2023-07-13T08:43:17;33.40;91.00
7388;DHT22;3735;50.136;11.062;2023-07-13T08:48:58;33.50;88.20
7388;DHT22;3735;50.136;11.062;2023-07-13T08:51:45;33.40;84.30
7388;DHT22;3735;50.136;11.062;2023-07-13T08:54:37;33.30;84.60
7388;DHT22;3735;50.136;11.062;2023-07-13T08:57:21;33.00;84.40
7388;DHT22;3735;50.136;11.062;2023-07-13T08:59:55;32.80;87.30
7388;DHT22;3735;50.136;11.062;2023-07-13T09:02:41;33.00;84.30
7388;DHT22;3735;50.136;11.062;2023-07-13T09:05:36;33.10;83.10
7388;DHT22;3735;50.136;11.062;2023-07-13T09:14:33;34.30;79.90
7388;DHT22;3735;50.136;11.062;2023-07-13T09:17:04;33.20;79.80
7388;DHT22;3735;50.136;11.062;2023-07-13T09:19:36;32.70;79.90
7388;DHT22;3735;50.136;11.062;2023-07-13T09:22:04;33.40;73.00
7388;DHT22;3735;50.136;11.062;2023-07-13T09:25:00;34.10;73.70
7388;DHT22;3735;50.136;11.062;2023-07-13T09:27:39;34.30;69.90
7388;DHT22;3735;50.136;11.062;2023-07-13T09:32:46;35.50;66.30
7388;DHT22;3735;50.136;11.062;2023-07-13T09:35:27;36.20;65.40
7388;DHT22;3735;50.136;11.062;2023-07-13T09:38:01;36.90;64.90
7388;DHT22;3735;50.136;11.062;2023-07-13T09:43:15;36.10;62.00
7388;DHT22;3735;50.136;11.062;2023-07-13T09:45:45;36.50;60.60
7388;DHT22;3735;50.136;11.062;2023-07-13T09:48:14;36.30;59.40
7388;DHT22;3735;50.136;11.062;2023-07-13T09:50:42;36.30;61.30
7388;DHT22;3735;50.136;11.062;2023-07-13T09:53:17;36.70;60.00
7388;DHT22;3735;50.136;11.062;2023-07-13T09:55:47;36.80;58.70
7388;DHT22;3735;50.136;11.062;2023-07-13T09:58:23;36.60;57.70
7388;DHT22;3735;50.136;11.062;2023-07-13T10:00:59;36.50;59.10
7388;DHT22;3735;50.136;11.062;2023-07-13T10:03:32;35.90;58.80
7388;DHT22;3735;50.136;11.062;2023-07-13T10:06:19;35.70;59.40
7388;DHT22;3735;50.136;11.062;2023-07-13T10:08:48;36.00;58.00
7388;DHT22;3735;50.136;11.062;2023-07-13T10:11:26;36.00;58.20
7388;DHT22;3735;50.136;11.062;2023-07-13T10:14:01;36.20;59.00
7388;DHT22;3735;50.136;11.062;2023-07-13T10:16:34;36.40;56.90
7388;DHT22;3735;50.136;11.062;2023-07-13T10:19:14;36.20;56.10
7388;DHT22;3735;50.136;11.062;2023-07-13T10:22:07;35.90;57.50
7388;DHT22;3735;50.136;11.062;2023-07-13T10:24:44;36.30;57.60
7388;DHT22;3735;50.136;11.062;2023-07-13T10:27:17;36.30;56.10
7388;DHT22;3735;50.136;11.062;2023-07-13T10:32:39;35.70;57.40
7388;DHT22;3735;50.136;11.062;2023-07-13T10:35:07;35.90;56.50
7388;DHT22;3735;50.136;11.062;2023-07-13T10:40:43;36.60;58.50
7388;DHT22;3735;50.136;11.062;2023-07-13T10:43:27;36.60;57.10
7388;DHT22;3735;50.136;11.062;2023-07-13T10:46:06;36.70;57.70
7388;DHT22;3735;50.136;11.062;2023-07-13T10:48:34;37.00;57.80
7388;DHT22;3735;50.136;11.062;2023-07-13T10:51:04;37.30;57.90
7388;DHT22;3735;50.136;11.062;2023-07-13T10:53:37;37.50;56.40
7388;DHT22;3735;50.136;11.062;2023-07-13T10:58:47;37.60;56.40
7388;DHT22;3735;50.136;11.062;2023-07-13T11:04:21;38.20;56.10
7388;DHT22;3735;50.136;11.062;2023-07-13T11:06:52;38.50;55.90
7388;DHT22;3735;50.136;11.062;2023-07-13T11:09:40;38.60;55.80
7388;DHT22;3735;50.136;11.062;2023-07-13T11:12:27;38.30;54.20
7388;DHT22;3735;50.136;11.062;2023-07-13T11:17:33;36.80;56.70
7388;DHT22;3735;50.136;11.062;2023-07-13T11:23:07;36.80;55.90
7388;DHT22;3735;50.136;11.062;2023-07-13T11:25:43;36.00;55.20
7388;DHT22;3735;50.136;11.062;2023-07-13T11:30:46;36.20;56.00
7388;DHT22;3735;50.136;11.062;2023-07-13T11:36:13;36.20;56.30
7388;DHT22;3735;50.136;11.062;2023-07-13T11:39:09;37.10;57.20
7388;DHT22;3735;50.136;11.062;2023-07-13T11:41:45;37.20;55.60
7388;DHT22;3735;50.136;11.062;2023-07-13T11:44:19;37.70;55.50
7388;DHT22;3735;50.136;11.062;2023-07-13T11:46:51;37.50;56.70
7388;DHT22;3735;50.136;11.062;2023-07-13T11:49:20;35.80;56.30
7388;DHT22;3735;50.136;11.062;2023-07-13T11:51:50;34.10;57.70
7388;DHT22;3735;50.136;11.062;2023-07-13T11:54:29;34.20;59.10
7388;DHT22;3735;50.136;11.062;2023-07-13T11:57:06;33.90;59.00
7388;DHT22;3735;50.136;11.062;2023-07-13T11:59:45;32.80;58.60
7388;DHT22;3735;50.136;11.062;2023-07-13T12:02:59;32.60;58.60
7388;DHT22;3735;50.136;11.062;2023-07-13T12:05:11;33.20;59.60
7388;DHT22;3735;50.136;11.062;2023-07-13T12:07:39;34.00;59.10
7388;DHT22;3735;50.136;11.062;2023-07-13T12:12:36;31.30;60.10
7388;DHT22;3735;50.136;11.062;2023-07-13T12:15:07;30.40;61.10
7388;DHT22;3735;50.136;11.062;2023-07-13T12:17:34;30.70;63.10
7388;DHT22;3735;50.136;11.062;2023-07-13T12:20:03;32.40;62.70
7388;DHT22;3735;50.136;11.062;2023-07-13T12:22:50;33.30;61.40
7388;DHT22;3735;50.136;11.062;2023-07-13T12:25:17;34.80;60.70
7388;DHT22;3735;50.136;11.062;2023-07-13T12:27:48;35.40;58.50
7388;DHT22;3735;50.136;11.062;2023-07-13T12:30:37;35.70;58.90
7388;DHT22;3735;50.136;11.062;2023-07-13T12:33:12;36.00;58.70
7388;DHT22;3735;50.136;11.062;2023-07-13T12:35:45;36.90;58.10
7388;DHT22;3735;50.136;11.062;2023-07-13T12:38:18;36.80;58.00
7388;DHT22;3735;50.136;11.062;2023-07-13T12:40:50;36.30;57.50
7388;DHT22;3735;50.136;11.062;2023-07-13T12:43:20;34.80;57.40
7388;DHT22;3735;50.136;11.062;2023-07-13T12:46:00;33.50;59.30
7388;DHT22;3735;50.136;11.062;2023-07-13T12:48:28;33.10;61.40
7388;DHT22;3735;50.136;11.062;2023-07-13T12:50:55;32.50;60.60
7388;DHT22;3735;50.136;11.062;2023-07-13T12:53:29;31.60;61.40
7388;DHT22;3735;50.136;11.062;2023-07-13T12:55:59;30.70;62.60
7388;DHT22;3735;50.136;11.062;2023-07-13T12:58:32;30.20;64.70
7388;DHT22;3735;50.136;11.062;2023-07-13T13:01:02;29.60;65.40
7388;DHT22;3735;50.136;11.062;2023-07-13T13:03:53;29.20;66.70
7388;DHT22;3735;50.136;11.062;2023-07-13T13:06:26;29.80;67.00
7388;DHT22;3735;50.136;11.062;2023-07-13T13:08:55;30.30;67.20
7388;DHT22;3735;50.136;11.062;2023-07-13T13:11:24;30.20;68.20
7388;DHT22;3735;50.136;11.062;2023-07-13T13:13:52;30.10;67.70
7388;DHT22;3735;50.136;11.062;2023-07-13T13:16:29;29.80;69.00
7388;DHT22;3735;50.136;11.062;2023-07-13T13:19:18;29.60;70.70
7388;DHT22;3735;50.136;11.062;2023-07-13T13:21:49;29.50;71.20
7388;DHT22;3735;50.136;11.062;2023-07-13T13:24:21;29.30;70.60
7388;DHT22;3735;50.136;11.062;2023-07-13T13:26:50;29.60;72.90
7388;DHT22;3735;50.136;11.062;2023-07-13T13:29:22;31.30;72.80
7388;DHT22;3735;50.136;11.062;2023-07-13T13:31:53;33.70;69.50
7388;DHT22;3735;50.136;11.062;2023-07-13T13:34:21;34.50;67.90
7388;DHT22;3735;50.136;11.062;2023-07-13T13:36:53;34.60;66.80
7388;DHT22;3735;50.136;11.062;2023-07-13T13:41:54;34.50;63.60
7388;DHT22;3735;50.136;11.062;2023-07-13T13:44:21;33.10;64.80
7388;DHT22;3735;50.136;11.062;2023-07-13T13:46:53;31.70;65.10
7388;DHT22;3735;50.136;11.062;2023-07-13T13:49:25;30.60;67.60
7388;DHT22;3735;50.136;11.062;2023-07-13T13:51:52;30.00;69.50
7388;DHT22;3735;50.136;11.062;2023-07-13T13:54:21;29.40;70.20
7388;DHT22;3735;50.136;11.062;2023-07-13T13:56:50;29.00;72.40
7388;DHT22;3735;50.136;11.062;2023-07-13T13:59:17;30.60;73.30
7388;DHT22;3735;50.136;11.062;2023-07-13T14:01:45;32.20;70.30
7388;DHT22;3735;50.136;11.062;2023-07-13T14:04:18;32.70;66.50
7388;DHT22;3735;50.136;11.062;2023-07-13T14:06:46;32.00;66.80
7388;DHT22;3735;50.136;11.062;2023-07-13T14:09:15;31.10;67.60
7388;DHT22;3735;50.136;11.062;2023-07-13T14:11:43;30.40;68.80
7388;DHT22;3735;50.136;11.062;2023-07-13T14:14:22;29.90;69.60
7388;DHT22;3735;50.136;11.062;2023-07-13T14:16:50;29.60;70.60
7388;DHT22;3735;50.136;11.062;2023-07-13T14:19:20;29.60;71.40
7388;DHT22;3735;50.136;11.062;2023-07-13T14:21:47;30.00;70.60
7388;DHT22;3735;50.136;11.062;2023-07-13T14:24:14;30.30;69.50
7388;DHT22;3735;50.136;11.062;2023-07-13T14:26:41;29.60;67.10
7388;DHT22;3735;50.136;11.062;2023-07-13T14:29:16;29.40;69.30
7388;DHT22;3735;50.136;11.062;2023-07-13T14:31:44;29.60;68.30
7388;DHT22;3735;50.136;11.062;2023-07-13T14:34:11;29.60;68.90
7388;DHT22;3735;50.136;11.062;2023-07-13T14:36:43;30.70;68.90
7388;DHT22;3735;50.136;11.062;2023-07-13T14:39:22;32.20;66.80
7388;DHT22;3735;50.136;11.062;2023-07-13T14:41:54;32.90;62.80
7388;DHT22;3735;50.136;11.062;2023-07-13T14:44:24;32.00;62.90
7388;DHT22;3735;50.136;11.062;2023-07-13T14:46:52;32.60;63.10
7388;DHT22;3735;50.136;11.062;2023-07-13T14:49:31;32.10;62.20
7388;DHT22;3735;50.136;11.062;2023-07-13T14:52:03;31.10;63.30
7388;DHT22;3735;50.136;11.062;2023-07-13T14:54:36;30.20;65.60
7388;DHT22;3735;50.136;11.062;2023-07-13T14:57:12;29.60;67.20
7388;DHT22;3735;50.136;11.062;2023-07-13T14:59:39;29.10;69.00
7388;DHT22;3735;50.136;11.062;2023-07-13T15:02:16;28.70;69.60
7388;DHT22;3735;50.136;11.062;2023-07-13T15:04:44;28.20;70.40
7388;DHT22;3735;50.136;11.062;2023-07-13T15:07:11;28.00;71.40
7388;DHT22;3735;50.136;11.062;2023-07-13T15:09:38;28.30;72.00
7388;DHT22;3735;50.136;11.062;2023-07-13T15:12:05;29.90;71.90
7388;DHT22;3735;50.136;11.062;2023-07-13T15:14:31;30.20;70.10
7388;DHT22;3735;50.136;11.062;2023-07-13T15:16:57;29.70;71.10
7388;DHT22;3735;50.136;11.062;2023-07-13T15:19:25;29.50;72.30
7388;DHT22;3735;50.136;11.062;2023-07-13T15:21:53;30.50;72.10
7388;DHT22;3735;50.136;11.062;2023-07-13T15:24:21;31.30;72.30
7388;DHT22;3735;50.136;11.062;2023-07-13T15:26:47;32.30;70.20
7388;DHT22;3735;50.136;11.062;2023-07-13T15:29:15;32.50;68.50
7388;DHT22;3735;50.136;11.062;2023-07-13T15:31:42;32.10;69.00
7388;DHT22;3735;50.136;11.062;2023-07-13T15:34:13;31.20;66.50
7388;DHT22;3735;50.136;11.062;2023-07-13T15:36:40;29.90;68.50
7388;DHT22;3735;50.136;11.062;2023-07-13T15:39:07;29.10;71.00
7388;DHT22;3735;50.136;11.062;2023-07-13T15:41:40;28.40;71.60
7388;DHT22;3735;50.136;11.062;2023-07-13T15:44:26;28.00;73.40
7388;DHT22;3735;50.136;11.062;2023-07-13T15:46:54;27.80;74.00
7388;DHT22;3735;50.136;11.062;2023-07-13T15:49:20;27.60;74.50
7388;DHT22;3735;50.136;11.062;2023-07-13T15:51:46;27.50;74.60
7388;DHT22;3735;50.136;11.062;2023-07-13T15:54:16;27.50;74.60
7388;DHT22;3735;50.136;11.062;2023-07-13T15:56:53;27.30;75.60
7388;DHT22;3735;50.136;11.062;2023-07-13T15:59:21;27.30;75.50
7388;DHT22;3735;50.136;11.062;2023-07-13T16:01:47;27.40;76.20
7388;DHT22;3735;50.136;11.062;2023-07-13T16:04:15;27.40;76.00
7388;DHT22;3735;50.136;11.062;2023-07-13T16:06:41;27.30;76.70
7388;DHT22;3735;50.136;11.062;2023-07-13T16:09:13;27.20;77.20
7388;DHT22;3735;50.136;11.062;2023-07-13T16:11:45;27.10;76.90
7388;DHT22;3735;50.136;11.062;2023-07-13T16:14:13;27.10;77.80
7388;DHT22;3735;50.136;11.062;2023-07-13T16:16:40;27.10;79.10
7388;DHT22;3735;50.136;11.062;2023-07-13T16:19:06;27.10;78.20
7388;DHT22;3735;50.136;11.062;2023-07-13T16:21:46;27.00;78.70
7388;DHT22;3735;50.136;11.062;2023-07-13T16:24:21;26.90;78.80
7388;DHT22;3735;50.136;11.062;2023-07-13T16:26:50;26.70;79.40
7388;DHT22;3735;50.136;11.062;2023-07-13T16:29:21;26.60;80.90
7388;DHT22;3735;50.136;11.062;2023-07-13T16:34:31;27.10;80.60
7388;DHT22;3735;50.136;11.062;2023-07-13T16:36:59;27.40;81.90
7388;DHT22;3735;50.136;11.062;2023-07-13T16:39:28;27.40;80.40
7388;DHT22;3735;50.136;11.062;2023-07-13T16:41:57;27.20;80.50
7388;DHT22;3735;50.136;11.062;2023-07-13T16:44:25;26.90;79.60
7388;DHT22;3735;50.136;11.062;2023-07-13T16:46:54;26.50;80.20